createdAt,value
2022-12-05T00:00:56.035Z,-1.80
2022-12-05T00:03:23.093Z,-1.80
2022-12-05T00:05:49.696Z,-1.77
2022-12-05T00:08:16.429Z,-1.82
2022-12-05T00:10:43.336Z,-1.82
2022-12-05T00:13:10.684Z,-1.77
2022-12-05T00:15:41.342Z,-1.76
2022-12-05T00:18:07.941Z,-1.73
2022-12-05T00:20:34.856Z,-1.69
2022-12-05T00:23:01.503Z,-1.67
2022-12-05T00:25:28.839Z,-1.67
2022-12-05T00:27:55.392Z,-1.75
2022-12-05T00:30:21.916Z,-1.80
2022-12-05T00:32:48.425Z,-1.80
2022-12-05T00:35:14.981Z,-1.75
2022-12-05T00:37:41.500Z,-1.74
2022-12-05T00:40:08.643Z,-1.74
2022-12-05T00:42:35.197Z,-1.73
2022-12-05T00:45:01.853Z,-1.73
2022-12-05T00:47:28.443Z,-1.75
2022-12-05T00:49:55.330Z,-1.74
2022-12-05T00:52:22.076Z,-1.75
2022-12-05T00:54:48.821Z,-1.71
2022-12-05T00:57:15.484Z,-1.70
2022-12-05T00:59:42.098Z,-1.77
2022-12-05T01:02:08.838Z,-1.76
2022-12-05T01:04:35.538Z,-1.81
2022-12-05T01:07:02.098Z,-1.75
2022-12-05T01:09:28.897Z,-1.74
2022-12-05T01:11:55.975Z,-1.73
2022-12-05T01:14:24.376Z,-1.69
2022-12-05T01:16:53.313Z,-1.69
2022-12-05T01:19:28.544Z,-1.72
2022-12-05T01:21:56.200Z,-1.74
2022-12-05T01:24:23.945Z,-1.69
2022-12-05T01:26:50.599Z,-1.73
2022-12-05T01:29:20.248Z,-1.72
2022-12-05T01:31:47.288Z,-1.68
2022-12-05T01:34:16.213Z,-1.66
2022-12-05T01:36:43.165Z,-1.68
2022-12-05T01:39:11.551Z,-1.68
2022-12-05T01:41:43.101Z,-1.67
2022-12-05T01:44:12.630Z,-1.68
2022-12-05T01:46:44.513Z,-1.67
2022-12-05T01:49:15.495Z,-1.71
2022-12-05T01:51:46.377Z,-1.75
2022-12-05T01:54:15.047Z,-1.72
2022-12-05T01:56:44.488Z,-1.73
2022-12-05T01:59:12.894Z,-1.74
2022-12-05T02:01:40.932Z,-1.70
2022-12-05T02:04:08.389Z,-1.67
2022-12-05T02:06:34.920Z,-1.69
2022-12-05T02:09:01.697Z,-1.70
2022-12-05T02:11:30.270Z,-1.66
2022-12-05T02:14:06.313Z,-1.66
2022-12-05T02:16:35.932Z,-1.65
2022-12-05T02:19:22.413Z,-1.61
2022-12-05T02:22:01.300Z,-1.61
2022-12-05T02:24:46.499Z,-1.62
2022-12-05T02:27:15.726Z,-1.62
2022-12-05T02:30:09.191Z,-1.65
2022-12-05T02:33:17.359Z,-1.63
2022-12-05T02:36:08.692Z,-1.67
2022-12-05T02:39:02.335Z,-1.65
2022-12-05T02:41:49.817Z,-1.66
2022-12-05T02:44:24.419Z,-1.69
2022-12-05T02:46:54.134Z,-1.75
2022-12-05T02:49:25.198Z,-1.70
2022-12-05T02:51:58.371Z,-1.72
2022-12-05T02:54:29.876Z,-1.69
2022-12-05T02:56:58.774Z,-1.68
2022-12-05T02:59:25.377Z,-1.66
2022-12-05T03:01:52.472Z,-1.67
2022-12-05T03:04:22.622Z,-1.68
2022-12-05T03:06:55.654Z,-1.67
2022-12-05T03:09:28.524Z,-1.68
2022-12-05T03:12:01.140Z,-1.66
2022-12-05T03:14:33.375Z,-1.64
2022-12-05T03:17:06.366Z,-1.66
2022-12-05T03:19:42.127Z,-1.69
2022-12-05T03:22:23.046Z,-1.70
2022-12-05T03:24:49.718Z,-1.69
2022-12-05T03:27:16.171Z,-1.68
2022-12-05T03:29:54.708Z,-1.65
2022-12-05T03:32:56.788Z,-1.63
2022-12-05T03:35:25.942Z,-1.62
2022-12-05T03:37:53.492Z,-1.61
2022-12-05T03:40:19.945Z,-1.60
2022-12-05T03:42:54.080Z,-1.57
2022-12-05T03:45:28.518Z,-1.56
2022-12-05T03:48:11.093Z,-1.56
2022-12-05T03:50:42.609Z,-1.55
2022-12-05T03:53:29.754Z,-1.55
2022-12-05T03:56:06.334Z,-1.56
2022-12-05T03:58:43.298Z,-1.57
2022-12-05T04:01:11.867Z,-1.55
2022-12-05T04:03:46.841Z,-1.56
2022-12-05T04:06:18.811Z,-1.58
2022-12-05T04:08:53.706Z,-1.59
2022-12-05T04:11:25.143Z,-1.61
2022-12-05T04:13:57.261Z,-1.63
2022-12-05T04:16:52.191Z,-1.63
2022-12-05T04:19:28.497Z,-1.62
2022-12-05T04:21:56.977Z,-1.64
2022-12-05T04:24:47.392Z,-1.65
2022-12-05T04:27:21.217Z,-1.65
2022-12-05T04:30:10.539Z,-1.67
2022-12-05T04:33:06.378Z,-1.65
2022-12-05T04:35:38.640Z,-1.67
2022-12-05T04:38:13.827Z,-1.65
2022-12-05T04:41:03.087Z,-1.66
2022-12-05T04:43:34.524Z,-1.62
2022-12-05T04:46:04.979Z,-1.63
2022-12-05T04:48:34.958Z,-1.60
2022-12-05T04:51:02.765Z,-1.60
2022-12-05T04:53:31.140Z,-1.59
2022-12-05T04:56:00.298Z,-1.58
2022-12-05T04:58:28.136Z,-1.59
2022-12-05T05:01:14.301Z,-1.61
2022-12-05T05:04:02.741Z,-1.57
2022-12-05T05:06:30.674Z,-1.56
2022-12-05T05:08:58.394Z,-1.57
2022-12-05T05:11:28.288Z,-1.63
2022-12-05T05:13:55.334Z,-1.62
2022-12-05T05:16:42.309Z,-1.62
2022-12-05T05:19:11.328Z,-1.60
2022-12-05T05:21:40.618Z,-1.57
2022-12-05T05:24:08.229Z,-1.66
2022-12-05T05:26:38.442Z,-1.63
2022-12-05T05:29:05.448Z,-1.65
2022-12-05T05:31:32.494Z,-1.63
2022-12-05T05:34:03.277Z,-1.64
2022-12-05T05:36:34.534Z,-1.64
2022-12-05T05:39:02.396Z,-1.62
2022-12-05T05:41:31.969Z,-1.62
2022-12-05T05:43:59.412Z,-1.61
2022-12-05T05:46:29.449Z,-1.58
2022-12-05T05:48:56.517Z,-1.58
2022-12-05T05:51:25.790Z,-1.61
2022-12-05T05:53:52.345Z,-1.58
2022-12-05T05:56:21.936Z,-1.56
2022-12-05T05:58:54.936Z,-1.61
2022-12-05T06:01:21.624Z,-1.61
2022-12-05T06:03:48.827Z,-1.56
2022-12-05T06:06:16.065Z,-1.56
2022-12-05T06:08:44.422Z,-1.56
2022-12-05T06:11:21.621Z,-1.57
2022-12-05T06:13:51.918Z,-1.63
2022-12-05T06:16:21.266Z,-1.61
2022-12-05T06:18:49.889Z,-1.62
2022-12-05T06:21:16.900Z,-1.64
2022-12-05T06:23:44.020Z,-1.65
2022-12-05T06:26:16.445Z,-1.63
2022-12-05T06:28:43.290Z,-1.61
2022-12-05T06:31:15.947Z,-1.58
2022-12-05T06:33:42.861Z,-1.58
2022-12-05T06:36:12.704Z,-1.58
2022-12-05T06:38:42.276Z,-1.58
2022-12-05T06:41:11.462Z,-1.62
2022-12-05T06:43:38.051Z,-1.63
2022-12-05T06:46:06.374Z,-1.64
2022-12-05T06:48:33.147Z,-1.64
2022-12-05T06:51:00.454Z,-1.66
2022-12-05T06:53:27.397Z,-1.65
2022-12-05T06:55:57.791Z,-1.62
2022-12-05T06:58:24.836Z,-1.63
2022-12-05T07:01:09.894Z,-1.62
2022-12-05T07:03:37.129Z,-1.62
2022-12-05T07:06:05.882Z,-1.60
2022-12-05T07:08:33.512Z,-1.60
2022-12-05T07:11:00.169Z,-1.60
2022-12-05T07:13:26.715Z,-1.58
2022-12-05T07:15:53.509Z,-1.58
2022-12-05T07:18:20.057Z,-1.59
2022-12-05T07:21:12.871Z,-1.57
2022-12-05T07:23:41.032Z,-1.56
2022-12-05T07:26:09.250Z,-1.56
2022-12-05T07:28:36.435Z,-1.53
2022-12-05T07:31:06.368Z,-1.54
2022-12-05T07:33:33.186Z,-1.51
2022-12-05T07:36:09.080Z,-1.52
2022-12-05T07:38:36.119Z,-1.52
2022-12-05T07:41:19.365Z,-1.48
2022-12-05T07:43:46.156Z,-1.43
2022-12-05T07:46:12.905Z,-1.43
2022-12-05T07:48:40.157Z,-1.40
2022-12-05T07:51:08.744Z,-1.36
2022-12-05T07:53:36.525Z,-1.35
2022-12-05T07:56:06.744Z,-1.31
2022-12-05T07:58:34.194Z,-1.27
2022-12-05T08:01:18.757Z,-1.24
2022-12-05T08:03:46.017Z,-1.21
2022-12-05T08:06:17.559Z,-1.23
2022-12-05T08:08:45.348Z,-1.20
2022-12-05T08:11:16.024Z,-1.16
2022-12-05T08:13:43.676Z,-1.14
2022-12-05T08:16:13.914Z,-1.14
2022-12-05T08:18:41.385Z,-1.13
2022-12-05T08:21:10.695Z,-1.18
2022-12-05T08:23:38.536Z,-1.19
2022-12-05T08:26:29.645Z,-1.11
2022-12-05T08:29:16.412Z,-1.09
2022-12-05T08:31:49.019Z,-1.09
2022-12-05T08:34:18.159Z,-1.05
2022-12-05T08:36:45.144Z,-1.04
2022-12-05T08:39:15.972Z,-1.06
2022-12-05T08:41:43.814Z,-1.06
2022-12-05T08:44:11.025Z,-1.04
2022-12-05T08:46:39.120Z,-1.00
2022-12-05T08:49:06.567Z,-0.96
2022-12-05T08:51:33.195Z,-0.97
2022-12-05T08:54:02.451Z,-1.04
2022-12-05T08:56:29.129Z,-1.06
2022-12-05T08:59:02.888Z,-1.01
2022-12-05T09:01:33.483Z,-1.02
2022-12-05T09:04:01.500Z,-0.99
2022-12-05T09:06:29.480Z,-0.98
2022-12-05T09:08:58.568Z,-0.94
2022-12-05T09:11:31.303Z,-0.92
2022-12-05T09:13:59.514Z,-0.92
2022-12-05T09:16:37.495Z,-0.91
2022-12-05T09:19:07.076Z,-0.88
2022-12-05T09:21:33.637Z,-0.84
2022-12-05T09:24:00.901Z,-0.81
2022-12-05T09:26:30.026Z,-0.77
2022-12-05T09:28:57.674Z,-0.74
2022-12-05T09:31:27.256Z,-0.71
2022-12-05T09:33:54.342Z,-0.71
2022-12-05T09:36:26.251Z,-0.71
2022-12-05T09:38:53.900Z,-0.70
2022-12-05T09:41:54.271Z,-0.68
2022-12-05T09:44:32.930Z,-0.59
2022-12-05T09:47:12.993Z,-0.51
2022-12-05T09:49:47.563Z,-0.43
2022-12-05T09:52:28.985Z,-0.46
2022-12-05T09:54:55.957Z,-0.43
2022-12-05T09:57:34.248Z,-0.38
2022-12-05T10:00:03.743Z,-0.39
2022-12-05T10:02:44.154Z,-0.40
2022-12-05T10:05:28.067Z,-0.49
2022-12-05T10:07:57.538Z,-0.52
2022-12-05T10:10:33.735Z,-0.50
2022-12-05T10:13:28.263Z,-0.45
2022-12-05T10:16:07.684Z,-0.38
2022-12-05T10:18:40.600Z,-0.29
2022-12-05T10:21:19.111Z,-0.26
2022-12-05T10:23:58.827Z,-0.23
2022-12-05T10:26:33.159Z,-0.15
2022-12-05T10:29:23.844Z,-0.13
2022-12-05T10:31:54.512Z,-0.23
2022-12-05T10:34:31.931Z,-0.11
2022-12-05T10:37:14.263Z,-0.05
2022-12-05T10:39:41.030Z,-0.12
2022-12-05T10:42:15.347Z,-0.17
2022-12-05T10:44:42.189Z,-0.25
2022-12-05T10:47:09.768Z,-0.33
2022-12-05T10:49:37.974Z,-0.47
2022-12-05T10:52:05.370Z,-0.41
2022-12-05T10:54:46.910Z,-0.50
2022-12-05T10:57:25.603Z,-0.42
2022-12-05T10:59:53.206Z,-0.49
2022-12-05T11:02:28.197Z,-0.45
2022-12-05T11:04:56.135Z,-0.29
2022-12-05T11:07:33.288Z,-0.22
2022-12-05T11:10:02.453Z,-0.18
2022-12-05T11:12:39.595Z,-0.39
2022-12-05T11:15:24.308Z,-0.49
2022-12-05T11:17:53.279Z,-0.47
2022-12-05T11:20:19.729Z,-0.41
2022-12-05T11:22:52.703Z,-0.45
2022-12-05T11:25:28.247Z,-0.41
2022-12-05T11:28:00.925Z,-0.55
2022-12-05T11:30:29.547Z,-0.54
2022-12-05T11:33:20.448Z,-0.40
2022-12-05T11:35:48.150Z,-0.35
2022-12-05T11:38:17.626Z,-0.30
2022-12-05T11:40:49.951Z,-0.35
2022-12-05T11:43:35.362Z,-0.41
2022-12-05T11:46:24.982Z,-0.32
2022-12-05T11:49:02.033Z,-0.35
2022-12-05T11:51:40.430Z,-0.33
2022-12-05T11:55:08.160Z,-0.47
2022-12-05T11:57:54.529Z,-0.43
2022-12-05T12:00:22.839Z,-0.35
2022-12-05T12:03:19.708Z,-0.41
2022-12-05T12:06:14.186Z,-0.39
2022-12-05T12:08:50.021Z,-0.40
2022-12-05T12:11:38.012Z,-0.41
2022-12-05T12:14:19.853Z,-0.41
2022-12-05T12:16:49.380Z,-0.48
2022-12-05T12:19:31.459Z,-0.50
2022-12-05T12:22:24.091Z,-0.44
2022-12-05T12:25:33.741Z,-0.43
2022-12-05T12:28:12.694Z,-0.41
2022-12-05T12:31:03.733Z,-0.41
2022-12-05T12:33:40.279Z,-0.38
2022-12-05T12:36:28.618Z,-0.35
2022-12-05T12:39:24.311Z,-0.32
2022-12-05T12:41:57.082Z,-0.27
2022-12-05T12:44:41.562Z,-0.24
2022-12-05T12:47:37.552Z,-0.25
2022-12-05T12:50:19.897Z,-0.23
2022-12-05T12:53:14.956Z,-0.24
2022-12-05T12:56:10.726Z,-0.17
2022-12-05T12:58:42.898Z,-0.16
2022-12-05T13:01:36.560Z,-0.17
2022-12-05T13:04:12.558Z,-0.22
2022-12-05T13:06:51.229Z,-0.28
2022-12-05T13:09:26.524Z,-0.30
2022-12-05T13:11:55.347Z,-0.29
2022-12-05T13:14:25.286Z,-0.32
2022-12-05T13:16:54.724Z,-0.35
2022-12-05T13:19:37.431Z,-0.36
2022-12-05T13:22:05.997Z,-0.38
2022-12-05T13:24:32.709Z,-0.40
2022-12-05T13:27:02.610Z,-0.40
2022-12-05T13:29:34.023Z,-0.42
2022-12-05T13:32:03.294Z,-0.43
2022-12-05T13:34:29.963Z,-0.42
2022-12-05T13:37:17.668Z,-0.48
2022-12-05T13:40:14.569Z,-0.58
2022-12-05T13:42:43.125Z,-0.61
2022-12-05T13:45:20.563Z,-0.61
2022-12-05T13:48:01.584Z,-0.58
2022-12-05T13:50:49.066Z,-0.51
2022-12-05T13:53:18.549Z,-0.47
2022-12-05T13:55:57.518Z,-0.41
2022-12-05T13:58:24.080Z,-0.42
2022-12-05T14:00:52.221Z,-0.54
2022-12-05T14:03:21.821Z,-0.61
2022-12-05T14:05:54.915Z,-0.62
2022-12-05T14:08:37.666Z,-0.58
2022-12-05T14:11:05.747Z,-0.56
2022-12-05T14:13:33.707Z,-0.55
2022-12-05T14:16:35.448Z,-0.56
2022-12-05T14:19:16.504Z,-0.59
2022-12-05T14:21:54.731Z,-0.56
2022-12-05T14:24:33.439Z,-0.57
2022-12-05T14:27:28.957Z,-0.60
2022-12-05T14:30:21.568Z,-0.57
2022-12-05T14:32:49.977Z,-0.59
2022-12-05T14:35:25.568Z,-0.60
2022-12-05T14:37:53.753Z,-0.57
2022-12-05T14:40:32.384Z,-0.60
2022-12-05T14:43:21.066Z,-0.59
2022-12-05T14:45:58.943Z,-0.61
2022-12-05T14:48:47.143Z,-0.65
2022-12-05T14:51:32.532Z,-0.65
2022-12-05T14:54:12.759Z,-0.64
2022-12-05T14:56:50.721Z,-0.63
2022-12-05T14:59:29.145Z,-0.61
2022-12-05T15:01:58.875Z,-0.66
2022-12-05T15:04:43.597Z,-0.67
2022-12-05T15:07:16.624Z,-0.69
2022-12-05T15:09:46.363Z,-0.70
2022-12-05T15:12:22.025Z,-0.68
2022-12-05T15:14:55.241Z,-0.71
2022-12-05T15:17:30.476Z,-0.71
2022-12-05T15:20:04.078Z,-0.71
2022-12-05T15:22:35.375Z,-0.72
2022-12-05T15:25:35.297Z,-0.75
2022-12-05T15:28:05.377Z,-0.70
2022-12-05T15:30:36.263Z,-0.73
2022-12-05T15:33:03.581Z,-0.75
2022-12-05T15:35:33.762Z,-0.74
2022-12-05T15:38:13.633Z,-0.73
2022-12-05T15:40:47.564Z,-0.68
2022-12-05T15:43:29.023Z,-0.65
2022-12-05T15:46:24.630Z,-0.66
2022-12-05T15:48:56.849Z,-0.69
2022-12-05T15:51:43.017Z,-0.70
2022-12-05T15:54:29.101Z,-0.68
2022-12-05T15:57:07.197Z,-0.68
2022-12-05T15:59:42.339Z,-0.67
2022-12-05T16:02:26.336Z,-0.67
2022-12-05T16:04:56.681Z,-0.69
2022-12-05T16:07:27.164Z,-0.67
2022-12-05T16:09:57.790Z,-0.68
2022-12-05T16:12:31.509Z,-0.66
2022-12-05T16:15:03.410Z,-0.69
2022-12-05T16:17:39.316Z,-0.66
2022-12-05T16:20:36.392Z,-0.67
2022-12-05T16:23:32.300Z,-0.68
2022-12-05T16:26:21.615Z,-0.68
2022-12-05T16:28:59.293Z,-0.69
2022-12-05T16:31:26.309Z,-0.69
2022-12-05T16:34:01.630Z,-0.70
2022-12-05T16:36:28.404Z,-0.73
2022-12-05T16:39:06.903Z,-0.75
2022-12-05T16:41:38.902Z,-0.75
2022-12-05T16:44:26.226Z,-0.76
2022-12-05T16:46:54.175Z,-0.76
2022-12-05T16:49:37.025Z,-0.77
2022-12-05T16:52:14.464Z,-0.75
2022-12-05T16:54:42.664Z,-0.75
2022-12-05T16:57:12.242Z,-0.73
2022-12-05T16:59:39.819Z,-0.74
2022-12-05T17:02:12.499Z,-0.75
2022-12-05T17:04:39.186Z,-0.77
2022-12-05T17:07:05.872Z,-0.77
2022-12-05T17:09:32.555Z,-0.72
2022-12-05T17:12:07.701Z,-0.77
2022-12-05T17:14:34.406Z,-0.78
2022-12-05T17:17:03.703Z,-0.74
2022-12-05T17:19:30.364Z,-0.78
2022-12-05T17:21:57.013Z,-0.79
2022-12-05T17:24:24.800Z,-0.77
2022-12-05T17:26:51.563Z,-0.77
2022-12-05T17:29:18.057Z,-0.77
2022-12-05T17:31:44.909Z,-0.77
2022-12-05T17:34:16.828Z,-0.73
2022-12-05T17:36:44.913Z,-0.75
2022-12-05T17:39:11.660Z,-0.74
2022-12-05T17:41:38.245Z,-0.78
2022-12-05T17:44:05.748Z,-0.75
2022-12-05T17:46:32.673Z,-0.76
2022-12-05T17:48:59.298Z,-0.80
2022-12-05T17:51:26.437Z,-0.77
2022-12-05T17:53:54.133Z,-0.81
2022-12-05T17:56:21.577Z,-0.80
2022-12-05T17:58:48.377Z,-0.82
2022-12-05T18:01:17.604Z,-0.81
2022-12-05T18:03:45.671Z,-0.75
2022-12-05T18:06:12.340Z,-0.73
2022-12-05T18:08:44.024Z,-0.76
2022-12-05T18:11:14.467Z,-0.81
2022-12-05T18:13:41.130Z,-0.93
2022-12-05T18:16:07.871Z,-0.96
2022-12-05T18:18:34.607Z,-0.99
2022-12-05T18:21:09.161Z,-0.99
2022-12-05T18:23:36.936Z,-1.02
2022-12-05T18:26:05.978Z,-1.00
2022-12-05T18:28:34.623Z,-1.02
2022-12-05T18:31:07.081Z,-1.02
2022-12-05T18:33:33.686Z,-1.02
2022-12-05T18:36:05.562Z,-1.05
2022-12-05T18:38:32.105Z,-1.10
2022-12-05T18:41:02.743Z,-1.04
2022-12-05T18:43:29.533Z,-1.02
2022-12-05T18:46:03.023Z,-1.03
2022-12-05T18:48:39.446Z,-1.04
2022-12-05T18:51:12.666Z,-1.03
2022-12-05T18:53:39.521Z,-1.04
2022-12-05T18:56:25.007Z,-1.02
2022-12-05T18:59:01.926Z,-1.03
2022-12-05T19:01:29.308Z,-1.00
2022-12-05T19:04:00.740Z,-1.02
2022-12-05T19:06:29.917Z,-1.00
2022-12-05T19:08:59.073Z,-1.01
2022-12-05T19:11:26.488Z,-1.05
2022-12-05T19:14:00.540Z,-1.08
2022-12-05T19:16:28.192Z,-1.05
2022-12-05T19:18:58.028Z,-1.05
2022-12-05T19:21:26.917Z,-1.02
2022-12-05T19:23:54.046Z,-1.02
2022-12-05T19:26:21.996Z,-0.98
2022-12-05T19:28:49.275Z,-1.04
2022-12-05T19:31:19.632Z,-1.08
2022-12-05T19:33:52.196Z,-1.07
2022-12-05T19:36:21.174Z,-1.04
2022-12-05T19:38:50.098Z,-1.06
2022-12-05T19:41:20.001Z,-1.02
2022-12-05T19:43:47.256Z,-1.01
2022-12-05T19:46:20.123Z,-1.02
2022-12-05T19:48:47.967Z,-1.05
2022-12-05T19:51:14.792Z,-1.07
2022-12-05T19:53:42.988Z,-1.12
2022-12-05T19:56:14.682Z,-1.10
2022-12-05T19:58:41.935Z,-1.10
2022-12-05T20:01:13.221Z,-1.08
2022-12-05T20:03:40.899Z,-1.10
2022-12-05T20:06:08.680Z,-1.07
2022-12-05T20:08:36.422Z,-1.10
2022-12-05T20:11:05.003Z,-1.04
2022-12-05T20:13:46.432Z,-1.04
2022-12-05T20:16:15.231Z,-1.09
2022-12-05T20:18:42.093Z,-1.11
2022-12-05T20:21:11.836Z,-1.11
2022-12-05T20:23:38.680Z,-1.07
2022-12-05T20:26:15.788Z,-1.07
2022-12-05T20:28:42.537Z,-1.11
2022-12-05T20:31:16.246Z,-1.07
2022-12-05T20:33:43.727Z,-1.08
2022-12-05T20:36:18.728Z,-1.10
2022-12-05T20:38:46.633Z,-1.07
2022-12-05T20:41:15.854Z,-1.08
2022-12-05T20:43:47.261Z,-1.09
2022-12-05T20:46:16.915Z,-1.09
2022-12-05T20:48:44.618Z,-1.05
2022-12-05T20:51:13.636Z,-1.07
2022-12-05T20:53:41.847Z,-1.11
2022-12-05T20:56:11.584Z,-1.15
2022-12-05T20:58:38.872Z,-1.16
2022-12-05T21:01:10.736Z,-1.10
2022-12-05T21:03:40.945Z,-1.13
2022-12-05T21:06:12.914Z,-1.10
2022-12-05T21:08:40.236Z,-1.11
2022-12-05T21:11:07.812Z,-1.10
2022-12-05T21:13:35.021Z,-1.10
2022-12-05T21:16:04.975Z,-1.11
2022-12-05T21:18:32.058Z,-1.10
2022-12-05T21:21:01.776Z,-1.12
2022-12-05T21:23:28.761Z,-1.14
2022-12-05T21:25:55.906Z,-1.15
2022-12-05T21:28:22.476Z,-1.15
2022-12-05T21:30:49.045Z,-1.16
2022-12-05T21:33:15.600Z,-1.20
2022-12-05T21:35:43.437Z,-1.22
2022-12-05T21:38:10.040Z,-1.22
2022-12-05T21:40:36.536Z,-1.26
2022-12-05T21:43:03.084Z,-1.28
2022-12-05T21:45:29.696Z,-1.26
2022-12-05T21:47:56.229Z,-1.24
2022-12-05T21:50:22.752Z,-1.23
2022-12-05T21:52:49.393Z,-1.25
2022-12-05T21:55:16.112Z,-1.26
2022-12-05T21:57:42.614Z,-1.27
2022-12-05T22:00:09.808Z,-1.20
2022-12-05T22:02:36.420Z,-1.24
2022-12-05T22:05:03.105Z,-1.23
2022-12-05T22:07:29.695Z,-1.25
2022-12-05T22:09:56.459Z,-1.25
2022-12-05T22:12:23.432Z,-1.28
2022-12-05T22:14:49.977Z,-1.32
2022-12-05T22:17:16.505Z,-1.28
2022-12-05T22:19:43.037Z,-1.33
2022-12-05T22:22:10.678Z,-1.29
2022-12-05T22:24:37.302Z,-1.28
2022-12-05T22:27:03.834Z,-1.28
2022-12-05T22:29:30.329Z,-1.25
2022-12-05T22:31:56.880Z,-1.27
2022-12-05T22:34:23.451Z,-1.25
2022-12-05T22:36:51.765Z,-1.31
2022-12-05T22:39:18.318Z,-1.32
2022-12-05T22:41:45.029Z,-1.35
2022-12-05T22:44:11.561Z,-1.33
2022-12-05T22:46:38.185Z,-1.33
2022-12-05T22:49:05.118Z,-1.31
2022-12-05T22:51:32.562Z,-1.33
2022-12-05T22:53:59.489Z,-1.30
2022-12-05T22:56:27.817Z,-1.34
2022-12-05T22:58:56.437Z,-1.41
2022-12-05T23:01:31.955Z,-1.40
2022-12-05T23:04:07.301Z,-1.41
2022-12-05T23:06:35.367Z,-1.44
2022-12-05T23:09:03.447Z,-1.42
2022-12-05T23:11:30.941Z,-1.38
2022-12-05T23:14:01.613Z,-1.37
2022-12-05T23:16:31.005Z,-1.37
2022-12-05T23:18:59.969Z,-1.42
2022-12-05T23:21:29.740Z,-1.43
2022-12-05T23:23:59.893Z,-1.45
2022-12-05T23:26:29.597Z,-1.48
2022-12-05T23:28:56.582Z,-1.51
2022-12-05T23:31:23.946Z,-1.61
2022-12-05T23:33:51.649Z,-1.69
2022-12-05T23:36:19.572Z,-1.69
2022-12-05T23:38:46.317Z,-1.73
2022-12-05T23:41:17.841Z,-1.72
2022-12-05T23:43:44.920Z,-1.69
2022-12-05T23:46:12.960Z,-1.65
2022-12-05T23:48:40.205Z,-1.69
2022-12-05T23:51:12.721Z,-1.62
2022-12-05T23:53:42.013Z,-1.57
2022-12-05T23:56:11.583Z,-1.55
2022-12-05T23:58:38.439Z,-1.64
